sensor_id;sensor_type;location;lat;lon;timestamp;P1;durP1;ratioP1;P2;durP2;ratioP2
19877;SDS011;10101;52.204;9.910;2023-04-01T00:01:03;3.83;;;1.27;;
19877;SDS011;10101;52.204;9.910;2023-04-01T00:03:31;3.00;;;1.00;;
19877;SDS011;10101;52.204;9.910;2023-04-01T00:05:59;2.17;;;0.80;;
19877;SDS011;10101;52.204;9.910;2023-04-01T00:08:27;2.47;;;0.67;;
19877;SDS011;10101;52.204;9.910;2023-04-01T00:10:54;2.17;;;1.00;;
19877;SDS011;10101;52.204;9.910;2023-04-01T00:13:22;0.80;;;0.60;;
19877;SDS011;10101;52.204;9.910;2023-04-01T00:15:50;3.50;;;0.80;;
19877;SDS011;10101;52.204;9.910;2023-04-01T00:18:17;1.47;;;0.80;;
19877;SDS011;10101;52.204;9.910;2023-04-01T00:20:44;3.30;;;0.80;;
19877;SDS011;10101;52.204;9.910;2023-04-01T00:23:12;2.13;;;0.90;;
19877;SDS011;10101;52.204;9.910;2023-04-01T00:25:40;2.07;;;0.90;;
19877;SDS011;10101;52.204;9.910;2023-04-01T00:28:07;2.53;;;0.73;;
19877;SDS011;10101;52.204;9.910;2023-04-01T00:30:35;1.20;;;0.50;;
19877;SDS011;10101;52.204;9.910;2023-04-01T00:33:02;1.20;;;0.50;;
19877;SDS011;10101;52.204;9.910;2023-04-01T00:35:29;3.40;;;0.70;;
19877;SDS011;10101;52.204;9.910;2023-04-01T00:37:57;2.33;;;0.70;;
19877;SDS011;10101;52.204;9.910;2023-04-01T00:40:25;1.30;;;0.70;;
19877;SDS011;10101;52.204;9.910;2023-04-01T00:42:56;2.37;;;0.60;;
19877;SDS011;10101;52.204;9.910;2023-04-01T00:45:25;1.50;;;0.60;;
19877;SDS011;10101;52.204;9.910;2023-04-01T00:47:54;0.53;;;0.50;;
19877;SDS011;10101;52.204;9.910;2023-04-01T00:50:22;1.70;;;0.60;;
19877;SDS011;10101;52.204;9.910;2023-04-01T00:52:52;1.80;;;0.80;;
19877;SDS011;10101;52.204;9.910;2023-04-01T00:55:19;2.47;;;0.70;;
19877;SDS011;10101;52.204;9.910;2023-04-01T00:57:47;3.13;;;0.67;;
19877;SDS011;10101;52.204;9.910;2023-04-01T01:00:18;2.17;;;0.80;;
19877;SDS011;10101;52.204;9.910;2023-04-01T01:02:45;0.70;;;0.40;;
19877;SDS011;10101;52.204;9.910;2023-04-01T01:05:12;1.90;;;0.53;;
19877;SDS011;10101;52.204;9.910;2023-04-01T01:07:41;0.77;;;0.60;;
19877;SDS011;10101;52.204;9.910;2023-04-01T01:10:15;1.87;;;0.63;;
19877;SDS011;10101;52.204;9.910;2023-04-01T01:12:45;1.33;;;0.40;;
19877;SDS011;10101;52.204;9.910;2023-04-01T01:15:19;0.97;;;0.47;;
19877;SDS011;10101;52.204;9.910;2023-04-01T01:17:50;2.37;;;0.40;;
19877;SDS011;10101;52.204;9.910;2023-04-01T01:20:33;1.20;;;0.60;;
19877;SDS011;10101;52.204;9.910;2023-04-01T01:23:29;1.33;;;0.50;;
19877;SDS011;10101;52.204;9.910;2023-04-01T01:26:42;0.93;;;0.43;;
19877;SDS011;10101;52.204;9.910;2023-04-01T01:29:34;0.97;;;0.40;;
19877;SDS011;10101;52.204;9.910;2023-04-01T01:32:16;0.77;;;0.50;;
19877;SDS011;10101;52.204;9.910;2023-04-01T01:34:52;1.33;;;0.70;;
19877;SDS011;10101;52.204;9.910;2023-04-01T01:37:24;4.53;;;0.50;;
19877;SDS011;10101;52.204;9.910;2023-04-01T01:39:54;2.53;;;0.30;;
19877;SDS011;10101;52.204;9.910;2023-04-01T01:42:23;0.77;;;0.50;;
19877;SDS011;10101;52.204;9.910;2023-04-01T01:44:53;0.80;;;0.47;;
19877;SDS011;10101;52.204;9.910;2023-04-01T01:47:23;1.83;;;0.50;;
19877;SDS011;10101;52.204;9.910;2023-04-01T01:49:51;1.37;;;0.53;;
19877;SDS011;10101;52.204;9.910;2023-04-01T01:52:21;2.07;;;0.60;;
19877;SDS011;10101;52.204;9.910;2023-04-01T01:54:49;2.43;;;0.87;;
19877;SDS011;10101;52.204;9.910;2023-04-01T01:57:17;1.80;;;0.50;;
19877;SDS011;10101;52.204;9.910;2023-04-01T01:59:49;2.47;;;0.60;;
19877;SDS011;10101;52.204;9.910;2023-04-01T02:02:18;1.60;;;0.60;;
19877;SDS011;10101;52.204;9.910;2023-04-01T02:04:47;0.87;;;0.43;;
19877;SDS011;10101;52.204;9.910;2023-04-01T02:07:16;2.33;;;0.60;;
19877;SDS011;10101;52.204;9.910;2023-04-01T02:09:47;0.53;;;0.53;;
19877;SDS011;10101;52.204;9.910;2023-04-01T02:12:16;2.40;;;0.50;;
19877;SDS011;10101;52.204;9.910;2023-04-01T02:14:45;1.13;;;0.50;;
19877;SDS011;10101;52.204;9.910;2023-04-01T02:17:16;1.70;;;0.50;;
19877;SDS011;10101;52.204;9.910;2023-04-01T02:19:46;0.67;;;0.40;;
19877;SDS011;10101;52.204;9.910;2023-04-01T02:22:16;0.60;;;0.40;;
19877;SDS011;10101;52.204;9.910;2023-04-01T02:24:46;2.67;;;0.70;;
19877;SDS011;10101;52.204;9.910;2023-04-01T02:27:16;1.63;;;0.60;;
19877;SDS011;10101;52.204;9.910;2023-04-01T02:29:43;1.03;;;0.40;;
19877;SDS011;10101;52.204;9.910;2023-04-01T02:32:10;1.10;;;0.40;;
19877;SDS011;10101;52.204;9.910;2023-04-01T02:34:38;0.63;;;0.50;;
19877;SDS011;10101;52.204;9.910;2023-04-01T02:37:05;0.40;;;0.40;;
19877;SDS011;10101;52.204;9.910;2023-04-01T02:39:32;1.30;;;0.50;;
19877;SDS011;10101;52.204;9.910;2023-04-01T02:41:59;1.03;;;0.50;;
19877;SDS011;10101;52.204;9.910;2023-04-01T02:44:27;0.60;;;0.50;;
19877;SDS011;10101;52.204;9.910;2023-04-01T02:46:54;3.53;;;0.70;;
19877;SDS011;10101;52.204;9.910;2023-04-01T02:49:21;1.27;;;0.50;;
19877;SDS011;10101;52.204;9.910;2023-04-01T02:51:47;0.30;;;0.30;;
19877;SDS011;10101;52.204;9.910;2023-04-01T02:54:14;1.40;;;0.30;;
19877;SDS011;10101;52.204;9.910;2023-04-01T02:56:41;0.60;;;0.40;;
19877;SDS011;10101;52.204;9.910;2023-04-01T02:59:08;2.40;;;0.63;;
19877;SDS011;10101;52.204;9.910;2023-04-01T03:01:36;1.07;;;0.50;;
19877;SDS011;10101;52.204;9.910;2023-04-01T03:04:03;0.67;;;0.40;;
19877;SDS011;10101;52.204;9.910;2023-04-01T03:06:30;1.23;;;0.50;;
19877;SDS011;10101;52.204;9.910;2023-04-01T03:08:57;2.10;;;0.53;;
19877;SDS011;10101;52.204;9.910;2023-04-01T03:11:23;2.33;;;0.50;;
19877;SDS011;10101;52.204;9.910;2023-04-01T03:13:51;0.97;;;0.50;;
19877;SDS011;10101;52.204;9.910;2023-04-01T03:16:17;1.60;;;0.50;;
19877;SDS011;10101;52.204;9.910;2023-04-01T03:18:46;0.77;;;0.77;;
19877;SDS011;10101;52.204;9.910;2023-04-01T03:21:15;1.83;;;0.50;;
19877;SDS011;10101;52.204;9.910;2023-04-01T03:23:43;1.73;;;0.67;;
19877;SDS011;10101;52.204;9.910;2023-04-01T03:26:10;1.17;;;0.60;;
19877;SDS011;10101;52.204;9.910;2023-04-01T03:28:37;3.00;;;0.60;;
19877;SDS011;10101;52.204;9.910;2023-04-01T03:31:04;1.97;;;0.60;;
19877;SDS011;10101;52.204;9.910;2023-04-01T03:33:31;3.73;;;0.80;;
19877;SDS011;10101;52.204;9.910;2023-04-01T03:35:59;1.37;;;0.50;;
19877;SDS011;10101;52.204;9.910;2023-04-01T03:38:26;1.87;;;0.90;;
19877;SDS011;10101;52.204;9.910;2023-04-01T03:40:53;4.87;;;0.80;;
19877;SDS011;10101;52.204;9.910;2023-04-01T03:43:19;1.50;;;0.70;;
19877;SDS011;10101;52.204;9.910;2023-04-01T03:45:48;0.70;;;0.53;;
19877;SDS011;10101;52.204;9.910;2023-04-01T03:48:17;1.47;;;0.50;;
19877;SDS011;10101;52.204;9.910;2023-04-01T03:50:44;0.93;;;0.50;;
19877;SDS011;10101;52.204;9.910;2023-04-01T03:53:12;0.83;;;0.53;;
19877;SDS011;10101;52.204;9.910;2023-04-01T03:55:40;2.03;;;0.43;;
19877;SDS011;10101;52.204;9.910;2023-04-01T03:58:07;2.97;;;0.70;;
19877;SDS011;10101;52.204;9.910;2023-04-01T04:00:33;0.57;;;0.57;;
19877;SDS011;10101;52.204;9.910;2023-04-01T04:03:00;1.03;;;0.50;;
19877;SDS011;10101;52.204;9.910;2023-04-01T04:05:27;1.60;;;0.50;;
19877;SDS011;10101;52.204;9.910;2023-04-01T04:07:55;1.13;;;0.50;;
19877;SDS011;10101;52.204;9.910;2023-04-01T04:10:23;0.43;;;0.43;;
19877;SDS011;10101;52.204;9.910;2023-04-01T04:12:50;0.60;;;0.43;;
19877;SDS011;10101;52.204;9.910;2023-04-01T04:15:17;2.23;;;0.67;;
19877;SDS011;10101;52.204;9.910;2023-04-01T04:17:44;0.70;;;0.40;;
19877;SDS011;10101;52.204;9.910;2023-04-01T04:20:11;2.40;;;0.57;;
19877;SDS011;10101;52.204;9.910;2023-04-01T04:22:38;1.47;;;0.57;;
19877;SDS011;10101;52.204;9.910;2023-04-01T04:25:05;1.73;;;0.50;;
19877;SDS011;10101;52.204;9.910;2023-04-01T04:27:34;0.87;;;0.37;;
19877;SDS011;10101;52.204;9.910;2023-04-01T04:30:01;1.70;;;0.50;;
19877;SDS011;10101;52.204;9.910;2023-04-01T04:32:28;1.23;;;0.40;;
19877;SDS011;10101;52.204;9.910;2023-04-01T04:34:55;2.40;;;0.70;;
19877;SDS011;10101;52.204;9.910;2023-04-01T04:37:22;1.43;;;0.60;;
19877;SDS011;10101;52.204;9.910;2023-04-01T04:39:50;1.03;;;0.50;;
19877;SDS011;10101;52.204;9.910;2023-04-01T04:42:17;2.17;;;0.70;;
19877;SDS011;10101;52.204;9.910;2023-04-01T04:44:45;1.33;;;0.70;;
19877;SDS011;10101;52.204;9.910;2023-04-01T04:47:12;1.97;;;0.97;;
19877;SDS011;10101;52.204;9.910;2023-04-01T04:49:39;3.17;;;0.50;;
19877;SDS011;10101;52.204;9.910;2023-04-01T04:52:05;2.17;;;0.70;;
19877;SDS011;10101;52.204;9.910;2023-04-01T04:54:32;2.73;;;0.80;;
19877;SDS011;10101;52.204;9.910;2023-04-01T04:56:59;2.30;;;0.90;;
19877;SDS011;10101;52.204;9.910;2023-04-01T04:59:26;2.33;;;0.70;;
19877;SDS011;10101;52.204;9.910;2023-04-01T05:01:54;1.37;;;0.77;;
19877;SDS011;10101;52.204;9.910;2023-04-01T05:04:20;4.87;;;0.90;;
19877;SDS011;10101;52.204;9.910;2023-04-01T05:06:47;2.20;;;0.87;;
19877;SDS011;10101;52.204;9.910;2023-04-01T05:09:14;1.70;;;0.80;;
19877;SDS011;10101;52.204;9.910;2023-04-01T05:11:41;1.60;;;0.80;;
19877;SDS011;10101;52.204;9.910;2023-04-01T05:14:11;0.73;;;0.60;;
19877;SDS011;10101;52.204;9.910;2023-04-01T05:16:39;1.47;;;0.60;;
19877;SDS011;10101;52.204;9.910;2023-04-01T05:19:07;0.57;;;0.57;;
19877;SDS011;10101;52.204;9.910;2023-04-01T05:21:33;1.93;;;0.83;;
19877;SDS011;10101;52.204;9.910;2023-04-01T05:24:00;1.57;;;0.80;;
19877;SDS011;10101;52.204;9.910;2023-04-01T05:26:27;1.30;;;0.60;;
19877;SDS011;10101;52.204;9.910;2023-04-01T05:28:54;0.60;;;0.57;;
19877;SDS011;10101;52.204;9.910;2023-04-01T05:31:21;2.27;;;0.70;;
19877;SDS011;10101;52.204;9.910;2023-04-01T05:33:48;0.83;;;0.60;;
19877;SDS011;10101;52.204;9.910;2023-04-01T05:36:16;1.43;;;0.60;;
19877;SDS011;10101;52.204;9.910;2023-04-01T05:38:43;1.43;;;0.63;;
19877;SDS011;10101;52.204;9.910;2023-04-01T05:41:12;1.50;;;0.60;;
19877;SDS011;10101;52.204;9.910;2023-04-01T05:43:39;3.47;;;0.77;;
19877;SDS011;10101;52.204;9.910;2023-04-01T05:46:06;2.00;;;0.80;;
19877;SDS011;10101;52.204;9.910;2023-04-01T05:48:33;2.83;;;0.80;;
19877;SDS011;10101;52.204;9.910;2023-04-01T05:51:00;2.60;;;0.80;;
19877;SDS011;10101;52.204;9.910;2023-04-01T05:53:28;1.77;;;0.80;;
19877;SDS011;10101;52.204;9.910;2023-04-01T05:55:55;2.47;;;0.83;;
19877;SDS011;10101;52.204;9.910;2023-04-01T05:58:22;2.47;;;0.83;;
19877;SDS011;10101;52.204;9.910;2023-04-01T06:00:49;0.90;;;0.60;;
19877;SDS011;10101;52.204;9.910;2023-04-01T06:03:16;2.47;;;0.87;;
19877;SDS011;10101;52.204;9.910;2023-04-01T06:05:43;1.37;;;0.70;;
19877;SDS011;10101;52.204;9.910;2023-04-01T06:08:11;1.70;;;0.77;;
19877;SDS011;10101;52.204;9.910;2023-04-01T06:10:47;1.93;;;0.90;;
19877;SDS011;10101;52.204;9.910;2023-04-01T06:13:24;4.27;;;1.00;;
19877;SDS011;10101;52.204;9.910;2023-04-01T06:16:00;1.20;;;0.70;;
19877;SDS011;10101;52.204;9.910;2023-04-01T06:18:39;2.67;;;0.70;;
19877;SDS011;10101;52.204;9.910;2023-04-01T06:21:20;1.73;;;0.80;;
19877;SDS011;10101;52.204;9.910;2023-04-01T06:24:12;1.53;;;0.80;;
19877;SDS011;10101;52.204;9.910;2023-04-01T06:26:50;3.63;;;1.57;;
19877;SDS011;10101;52.204;9.910;2023-04-01T06:29:28;0.70;;;0.70;;
19877;SDS011;10101;52.204;9.910;2023-04-01T06:32:19;1.47;;;0.90;;
19877;SDS011;10101;52.204;9.910;2023-04-01T06:35:20;1.87;;;0.80;;
19877;SDS011;10101;52.204;9.910;2023-04-01T06:38:07;3.13;;;0.60;;
19877;SDS011;10101;52.204;9.910;2023-04-01T06:40:53;1.80;;;0.80;;
19877;SDS011;10101;52.204;9.910;2023-04-01T06:43:47;5.40;;;0.83;;
19877;SDS011;10101;52.204;9.910;2023-04-01T06:46:23;1.33;;;0.70;;
19877;SDS011;10101;52.204;9.910;2023-04-01T06:49:02;1.30;;;0.70;;
19877;SDS011;10101;52.204;9.910;2023-04-01T06:51:39;0.70;;;0.57;;
19877;SDS011;10101;52.204;9.910;2023-04-01T06:54:13;3.70;;;0.90;;
19877;SDS011;10101;52.204;9.910;2023-04-01T06:56:44;2.17;;;0.80;;
19877;SDS011;10101;52.204;9.910;2023-04-01T06:59:16;1.70;;;0.87;;
19877;SDS011;10101;52.204;9.910;2023-04-01T07:01:46;3.43;;;1.00;;
19877;SDS011;10101;52.204;9.910;2023-04-01T07:04:17;1.87;;;0.87;;
19877;SDS011;10101;52.204;9.910;2023-04-01T07:06:48;1.27;;;0.70;;
19877;SDS011;10101;52.204;9.910;2023-04-01T07:09:19;1.63;;;0.80;;
19877;SDS011;10101;52.204;9.910;2023-04-01T07:11:48;0.80;;;0.57;;
19877;SDS011;10101;52.204;9.910;2023-04-01T07:14:22;2.47;;;0.70;;
19877;SDS011;10101;52.204;9.910;2023-04-01T07:16:56;1.10;;;0.80;;
19877;SDS011;10101;52.204;9.910;2023-04-01T07:19:29;0.90;;;0.70;;
19877;SDS011;10101;52.204;9.910;2023-04-01T07:22:02;2.90;;;1.07;;
19877;SDS011;10101;52.204;9.910;2023-04-01T07:24:32;1.63;;;0.90;;
19877;SDS011;10101;52.204;9.910;2023-04-01T07:27:00;0.60;;;0.60;;
19877;SDS011;10101;52.204;9.910;2023-04-01T07:29:29;1.80;;;0.70;;
19877;SDS011;10101;52.204;9.910;2023-04-01T07:32:13;1.37;;;0.57;;
19877;SDS011;10101;52.204;9.910;2023-04-01T07:34:56;2.77;;;0.80;;
19877;SDS011;10101;52.204;9.910;2023-04-01T07:37:34;1.70;;;0.80;;
19877;SDS011;10101;52.204;9.910;2023-04-01T07:40:14;4.23;;;0.80;;
19877;SDS011;10101;52.204;9.910;2023-04-01T07:42:52;2.27;;;0.67;;
19877;SDS011;10101;52.204;9.910;2023-04-01T07:45:33;0.90;;;0.50;;
19877;SDS011;10101;52.204;9.910;2023-04-01T07:48:09;1.23;;;0.67;;
19877;SDS011;10101;52.204;9.910;2023-04-01T07:50:46;2.47;;;1.20;;
19877;SDS011;10101;52.204;9.910;2023-04-01T07:53:22;0.73;;;0.60;;
19877;SDS011;10101;52.204;9.910;2023-04-01T07:55:59;1.23;;;0.60;;
19877;SDS011;10101;52.204;9.910;2023-04-01T07:58:32;1.07;;;0.60;;
19877;SDS011;10101;52.204;9.910;2023-04-01T08:01:05;0.93;;;0.50;;
19877;SDS011;10101;52.204;9.910;2023-04-01T08:03:44;0.77;;;0.50;;
19877;SDS011;10101;52.204;9.910;2023-04-01T08:06:20;3.10;;;0.87;;
19877;SDS011;10101;52.204;9.910;2023-04-01T08:08:56;2.00;;;0.70;;
19877;SDS011;10101;52.204;9.910;2023-04-01T08:11:36;2.00;;;1.07;;
19877;SDS011;10101;52.204;9.910;2023-04-01T08:14:14;1.63;;;0.60;;
19877;SDS011;10101;52.204;9.910;2023-04-01T08:16:51;1.63;;;0.60;;
19877;SDS011;10101;52.204;9.910;2023-04-01T08:19:27;1.63;;;0.70;;
19877;SDS011;10101;52.204;9.910;2023-04-01T08:22:02;1.30;;;0.70;;
19877;SDS011;10101;52.204;9.910;2023-04-01T08:24:36;1.27;;;0.60;;
19877;SDS011;10101;52.204;9.910;2023-04-01T08:27:09;1.90;;;0.60;;
19877;SDS011;10101;52.204;9.910;2023-04-01T08:29:44;1.83;;;0.60;;
19877;SDS011;10101;52.204;9.910;2023-04-01T08:32:17;0.83;;;0.50;;
19877;SDS011;10101;52.204;9.910;2023-04-01T08:34:48;0.70;;;0.40;;
19877;SDS011;10101;52.204;9.910;2023-04-01T08:37:22;0.63;;;0.43;;
19877;SDS011;10101;52.204;9.910;2023-04-01T08:39:55;2.73;;;0.77;;
19877;SDS011;10101;52.204;9.910;2023-04-01T08:42:29;2.00;;;0.70;;
19877;SDS011;10101;52.204;9.910;2023-04-01T08:48:19;1.73;;;0.40;;
19877;SDS011;10101;52.204;9.910;2023-04-01T08:51:01;2.03;;;0.90;;
19877;SDS011;10101;52.204;9.910;2023-04-01T08:53:51;1.23;;;0.50;;
19877;SDS011;10101;52.204;9.910;2023-04-01T08:56:33;0.90;;;0.47;;
19877;SDS011;10101;52.204;9.910;2023-04-01T08:59:13;1.27;;;0.40;;
19877;SDS011;10101;52.204;9.910;2023-04-01T09:01:55;0.97;;;0.50;;
19877;SDS011;10101;52.204;9.910;2023-04-01T09:07:40;1.90;;;0.70;;
19877;SDS011;10101;52.204;9.910;2023-04-01T09:10:18;0.67;;;0.40;;
19877;SDS011;10101;52.204;9.910;2023-04-01T09:16:03;1.27;;;0.50;;
19877;SDS011;10101;52.204;9.910;2023-04-01T09:18:42;3.87;;;0.50;;
19877;SDS011;10101;52.204;9.910;2023-04-01T09:24:42;0.67;;;0.53;;
19877;SDS011;10101;52.204;9.910;2023-04-01T09:27:32;1.23;;;0.63;;
19877;SDS011;10101;52.204;9.910;2023-04-01T09:33:27;0.63;;;0.50;;
19877;SDS011;10101;52.204;9.910;2023-04-01T09:36:18;0.67;;;0.40;;
19877;SDS011;10101;52.204;9.910;2023-04-01T09:38:56;0.30;;;0.30;;
19877;SDS011;10101;52.204;9.910;2023-04-01T09:41:29;0.73;;;0.50;;
19877;SDS011;10101;52.204;9.910;2023-04-01T09:44:00;1.27;;;0.67;;
19877;SDS011;10101;52.204;9.910;2023-04-01T09:46:37;0.87;;;0.60;;
19877;SDS011;10101;52.204;9.910;2023-04-01T09:49:33;2.47;;;0.43;;
19877;SDS011;10101;52.204;9.910;2023-04-01T09:52:14;1.40;;;0.50;;
19877;SDS011;10101;52.204;9.910;2023-04-01T09:55:02;2.23;;;0.53;;
19877;SDS011;10101;52.204;9.910;2023-04-01T09:57:56;0.93;;;0.50;;
19877;SDS011;10101;52.204;9.910;2023-04-01T10:04:02;1.63;;;0.50;;
19877;SDS011;10101;52.204;9.910;2023-04-01T10:13:28;0.50;;;0.47;;
19877;SDS011;10101;52.204;9.910;2023-04-01T10:16:12;1.37;;;0.60;;
19877;SDS011;10101;52.204;9.910;2023-04-01T10:21:57;1.17;;;0.40;;
19877;SDS011;10101;52.204;9.910;2023-04-01T10:24:56;0.83;;;0.43;;
19877;SDS011;10101;52.204;9.910;2023-04-01T10:31:02;0.67;;;0.50;;
19877;SDS011;10101;52.204;9.910;2023-04-01T10:33:49;1.00;;;0.70;;
19877;SDS011;10101;52.204;9.910;2023-04-01T10:36:50;0.33;;;0.33;;
19877;SDS011;10101;52.204;9.910;2023-04-01T10:39:38;0.93;;;0.40;;
19877;SDS011;10101;52.204;9.910;2023-04-01T10:43:00;0.87;;;0.60;;
19877;SDS011;10101;52.204;9.910;2023-04-01T10:49:06;0.97;;;0.43;;
19877;SDS011;10101;52.204;9.910;2023-04-01T10:54:54;1.00;;;0.40;;
19877;SDS011;10101;52.204;9.910;2023-04-01T10:57:46;0.83;;;0.40;;
19877;SDS011;10101;52.204;9.910;2023-04-01T11:00:46;0.90;;;0.50;;
19877;SDS011;10101;52.204;9.910;2023-04-01T11:10:00;0.43;;;0.40;;
19877;SDS011;10101;52.204;9.910;2023-04-01T11:13:00;0.70;;;0.50;;
19877;SDS011;10101;52.204;9.910;2023-04-01T11:16:06;1.77;;;1.20;;
19877;SDS011;10101;52.204;9.910;2023-04-01T11:19:00;1.00;;;0.80;;
19877;SDS011;10101;52.204;9.910;2023-04-01T11:21:54;0.93;;;0.80;;
19877;SDS011;10101;52.204;9.910;2023-04-01T11:24:36;1.00;;;0.60;;
19877;SDS011;10101;52.204;9.910;2023-04-01T11:27:25;0.63;;;0.57;;
19877;SDS011;10101;52.204;9.910;2023-04-01T11:30:07;1.70;;;0.73;;
19877;SDS011;10101;52.204;9.910;2023-04-01T11:32:50;0.60;;;0.60;;
19877;SDS011;10101;52.204;9.910;2023-04-01T11:35:28;0.80;;;0.70;;
19877;SDS011;10101;52.204;9.910;2023-04-01T11:38:09;0.60;;;0.60;;
19877;SDS011;10101;52.204;9.910;2023-04-01T11:40:47;0.93;;;0.70;;
19877;SDS011;10101;52.204;9.910;2023-04-01T11:43:27;1.37;;;0.70;;
19877;SDS011;10101;52.204;9.910;2023-04-01T11:46:01;0.70;;;0.57;;
19877;SDS011;10101;52.204;9.910;2023-04-01T11:48:41;1.33;;;0.50;;
19877;SDS011;10101;52.204;9.910;2023-04-01T11:51:25;0.77;;;0.60;;
19877;SDS011;10101;52.204;9.910;2023-04-01T11:54:05;1.53;;;0.67;;
19877;SDS011;10101;52.204;9.910;2023-04-01T11:56:48;0.80;;;0.60;;
19877;SDS011;10101;52.204;9.910;2023-04-01T11:59:37;0.97;;;0.57;;
19877;SDS011;10101;52.204;9.910;2023-04-01T12:02:29;0.63;;;0.47;;
19877;SDS011;10101;52.204;9.910;2023-04-01T12:05:14;1.90;;;0.30;;
19877;SDS011;10101;52.204;9.910;2023-04-01T12:07:55;1.00;;;0.50;;
19877;SDS011;10101;52.204;9.910;2023-04-01T12:10:33;1.30;;;0.60;;
19877;SDS011;10101;52.204;9.910;2023-04-01T12:13:08;1.53;;;0.70;;
19877;SDS011;10101;52.204;9.910;2023-04-01T12:15:49;0.83;;;0.57;;
19877;SDS011;10101;52.204;9.910;2023-04-01T12:18:35;0.63;;;0.63;;
19877;SDS011;10101;52.204;9.910;2023-04-01T12:21:09;0.47;;;0.47;;
19877;SDS011;10101;52.204;9.910;2023-04-01T12:23:55;0.77;;;0.50;;
19877;SDS011;10101;52.204;9.910;2023-04-01T12:26:52;1.83;;;0.53;;
19877;SDS011;10101;52.204;9.910;2023-04-01T12:29:37;0.40;;;0.40;;
19877;SDS011;10101;52.204;9.910;2023-04-01T12:32:17;0.50;;;0.50;;
19877;SDS011;10101;52.204;9.910;2023-04-01T12:37:45;1.67;;;0.90;;
19877;SDS011;10101;52.204;9.910;2023-04-01T12:40:26;0.60;;;0.57;;
19877;SDS011;10101;52.204;9.910;2023-04-01T12:43:07;1.10;;;0.50;;
19877;SDS011;10101;52.204;9.910;2023-04-01T12:45:54;4.17;;;1.30;;
19877;SDS011;10101;52.204;9.910;2023-04-01T12:48:36;2.57;;;0.60;;
19877;SDS011;10101;52.204;9.910;2023-04-01T12:51:27;1.97;;;1.00;;
19877;SDS011;10101;52.204;9.910;2023-04-01T12:54:11;2.47;;;0.80;;
19877;SDS011;10101;52.204;9.910;2023-04-01T12:57:01;2.67;;;0.63;;
19877;SDS011;10101;52.204;9.910;2023-04-01T12:59:48;0.80;;;0.47;;
19877;SDS011;10101;52.204;9.910;2023-04-01T13:02:32;1.50;;;0.60;;
19877;SDS011;10101;52.204;9.910;2023-04-01T13:05:18;0.83;;;0.60;;
19877;SDS011;10101;52.204;9.910;2023-04-01T13:07:58;1.07;;;0.60;;
19877;SDS011;10101;52.204;9.910;2023-04-01T13:10:45;1.93;;;0.60;;
19877;SDS011;10101;52.204;9.910;2023-04-01T13:13:41;0.47;;;0.40;;
19877;SDS011;10101;52.204;9.910;2023-04-01T13:16:27;0.60;;;0.50;;
19877;SDS011;10101;52.204;9.910;2023-04-01T13:18:58;0.50;;;0.50;;
19877;SDS011;10101;52.204;9.910;2023-04-01T13:21:34;1.03;;;0.50;;
19877;SDS011;10101;52.204;9.910;2023-04-01T13:24:09;1.43;;;0.40;;
19877;SDS011;10101;52.204;9.910;2023-04-01T13:26:52;0.73;;;0.40;;
19877;SDS011;10101;52.204;9.910;2023-04-01T13:29:27;0.70;;;0.50;;
19877;SDS011;10101;52.204;9.910;2023-04-01T13:32:06;1.63;;;0.40;;
19877;SDS011;10101;52.204;9.910;2023-04-01T13:34:46;0.60;;;0.60;;
19877;SDS011;10101;52.204;9.910;2023-04-01T13:37:29;1.90;;;0.70;;
19877;SDS011;10101;52.204;9.910;2023-04-01T13:40:02;1.47;;;1.10;;
19877;SDS011;10101;52.204;9.910;2023-04-01T13:42:49;3.00;;;1.10;;
19877;SDS011;10101;52.204;9.910;2023-04-01T13:45:26;2.00;;;0.90;;
19877;SDS011;10101;52.204;9.910;2023-04-01T13:48:18;0.80;;;0.80;;
19877;SDS011;10101;52.204;9.910;2023-04-01T13:51:05;1.20;;;0.73;;
19877;SDS011;10101;52.204;9.910;2023-04-01T13:53:47;0.60;;;0.60;;
19877;SDS011;10101;52.204;9.910;2023-04-01T13:56:37;0.87;;;0.60;;
19877;SDS011;10101;52.204;9.910;2023-04-01T13:59:28;0.77;;;0.50;;
19877;SDS011;10101;52.204;9.910;2023-04-01T14:02:17;0.50;;;0.50;;
19877;SDS011;10101;52.204;9.910;2023-04-01T14:08:04;0.80;;;0.60;;
19877;SDS011;10101;52.204;9.910;2023-04-01T14:10:44;0.70;;;0.70;;
19877;SDS011;10101;52.204;9.910;2023-04-01T14:13:22;1.67;;;0.67;;
19877;SDS011;10101;52.204;9.910;2023-04-01T14:15:57;3.63;;;0.90;;
19877;SDS011;10101;52.204;9.910;2023-04-01T14:18:41;0.83;;;0.70;;
19877;SDS011;10101;52.204;9.910;2023-04-01T14:21:24;1.47;;;1.00;;
19877;SDS011;10101;52.204;9.910;2023-04-01T14:30:26;1.70;;;1.10;;
19877;SDS011;10101;52.204;9.910;2023-04-01T14:33:01;5.23;;;1.50;;
19877;SDS011;10101;52.204;9.910;2023-04-01T14:35:46;2.33;;;1.37;;
19877;SDS011;10101;52.204;9.910;2023-04-01T14:38:29;3.23;;;1.77;;
19877;SDS011;10101;52.204;9.910;2023-04-01T14:41:20;2.40;;;1.23;;
19877;SDS011;10101;52.204;9.910;2023-04-01T14:47:07;1.60;;;1.07;;
19877;SDS011;10101;52.204;9.910;2023-04-01T14:49:50;2.20;;;1.43;;
19877;SDS011;10101;52.204;9.910;2023-04-01T14:52:24;1.37;;;1.10;;
19877;SDS011;10101;52.204;9.910;2023-04-01T14:54:54;1.10;;;1.00;;
19877;SDS011;10101;52.204;9.910;2023-04-01T14:57:23;2.53;;;1.47;;
19877;SDS011;10101;52.204;9.910;2023-04-01T14:59:52;1.53;;;1.30;;
19877;SDS011;10101;52.204;9.910;2023-04-01T15:02:37;2.00;;;1.80;;
19877;SDS011;10101;52.204;9.910;2023-04-01T15:05:15;2.67;;;1.80;;
19877;SDS011;10101;52.204;9.910;2023-04-01T15:08:01;2.00;;;1.80;;
19877;SDS011;10101;52.204;9.910;2023-04-01T15:13:38;1.63;;;1.53;;
19877;SDS011;10101;52.204;9.910;2023-04-01T15:16:23;1.67;;;1.57;;
19877;SDS011;10101;52.204;9.910;2023-04-01T15:19:00;1.33;;;1.23;;
19877;SDS011;10101;52.204;9.910;2023-04-01T15:21:49;1.63;;;1.47;;
19877;SDS011;10101;52.204;9.910;2023-04-01T15:24:28;2.03;;;1.40;;
19877;SDS011;10101;52.204;9.910;2023-04-01T15:30:05;1.27;;;0.97;;
19877;SDS011;10101;52.204;9.910;2023-04-01T15:32:57;0.97;;;0.80;;
19877;SDS011;10101;52.204;9.910;2023-04-01T15:35:43;1.17;;;0.80;;
19877;SDS011;10101;52.204;9.910;2023-04-01T15:38:21;2.97;;;1.00;;
19877;SDS011;10101;52.204;9.910;2023-04-01T15:40:59;1.10;;;1.00;;
19877;SDS011;10101;52.204;9.910;2023-04-01T15:43:36;1.13;;;1.03;;
19877;SDS011;10101;52.204;9.910;2023-04-01T15:46:21;1.93;;;1.50;;
19877;SDS011;10101;52.204;9.910;2023-04-01T15:52:05;2.37;;;1.50;;
19877;SDS011;10101;52.204;9.910;2023-04-01T15:54:51;2.40;;;2.20;;
19877;SDS011;10101;52.204;9.910;2023-04-01T15:57:35;1.53;;;1.43;;
19877;SDS011;10101;52.204;9.910;2023-04-01T16:00:11;1.67;;;1.57;;
19877;SDS011;10101;52.204;9.910;2023-04-01T16:02:47;2.90;;;1.70;;
19877;SDS011;10101;52.204;9.910;2023-04-01T16:05:22;2.40;;;1.80;;
19877;SDS011;10101;52.204;9.910;2023-04-01T16:08:01;1.67;;;1.57;;
19877;SDS011;10101;52.204;9.910;2023-04-01T16:10:52;1.73;;;1.53;;
19877;SDS011;10101;52.204;9.910;2023-04-01T16:13:38;2.37;;;1.80;;
19877;SDS011;10101;52.204;9.910;2023-04-01T16:16:17;2.20;;;1.70;;
19877;SDS011;10101;52.204;9.910;2023-04-01T16:18:55;2.13;;;1.73;;
19877;SDS011;10101;52.204;9.910;2023-04-01T16:21:35;1.80;;;1.60;;
19877;SDS011;10101;52.204;9.910;2023-04-01T16:24:05;1.80;;;1.60;;
19877;SDS011;10101;52.204;9.910;2023-04-01T16:26:43;2.20;;;1.93;;
19877;SDS011;10101;52.204;9.910;2023-04-01T16:29:19;1.83;;;1.70;;
19877;SDS011;10101;52.204;9.910;2023-04-01T16:31:55;3.00;;;1.80;;
19877;SDS011;10101;52.204;9.910;2023-04-01T16:34:31;2.47;;;1.50;;
19877;SDS011;10101;52.204;9.910;2023-04-01T16:37:05;1.53;;;1.43;;
19877;SDS011;10101;52.204;9.910;2023-04-01T16:39:41;1.73;;;1.53;;
19877;SDS011;10101;52.204;9.910;2023-04-01T16:42:16;1.90;;;1.67;;
19877;SDS011;10101;52.204;9.910;2023-04-01T16:44:52;1.63;;;1.53;;
19877;SDS011;10101;52.204;9.910;2023-04-01T16:47:22;1.93;;;1.73;;
19877;SDS011;10101;52.204;9.910;2023-04-01T16:49:56;1.33;;;1.23;;